Terminal Aerodrome Forecast
Issued by NWS Missoula, MT

Home | Current Version | Previous Version | Text Only | Print | Product List | Glossary On
Versions: 1 2 3 4 5 6 7 8 9 10 11 12 13 14 15
750
FTUS45 KMSO 270520
TAFGPI
TAF
KGPI 270520Z 2706/2806 06008KT P6SM SKC
     FM270800 02007KT P6SM VCSH SCT070 SCT090
     FM271000 VRB04KT P6SM SKC
     FM280000 34008KT P6SM -SHRA BKN070=

USA.gov is the U.S. government's official web portal to all federal, state and local government web resources and services.